sensor_id;sensor_type;location;lat;lon;timestamp;temperature;humidity
55777;DHT22;54079;44.540;18.784;2022-09-09T00:03:43;22.10;71.10
55777;DHT22;54079;44.540;18.784;2022-09-09T00:11:08;21.90;77.30
55777;DHT22;54079;44.540;18.784;2022-09-09T00:13:48;22.00;79.00
55777;DHT22;54079;44.540;18.784;2022-09-09T00:16:19;22.10;79.00
55777;DHT22;54079;44.540;18.784;2022-09-09T00:21:14;22.00;79.70
55777;DHT22;54079;44.540;18.784;2022-09-09T00:23:48;21.90;80.10
55777;DHT22;54079;44.540;18.784;2022-09-09T00:28:46;21.90;80.00
55777;DHT22;54079;44.540;18.784;2022-09-09T00:31:16;21.90;76.80
55777;DHT22;54079;44.540;18.784;2022-09-09T00:33:44;22.00;80.90
55777;DHT22;54079;44.540;18.784;2022-09-09T00:36:14;22.00;77.90
55777;DHT22;54079;44.540;18.784;2022-09-09T00:38:51;22.10;80.30
55777;DHT22;54079;44.540;18.784;2022-09-09T00:44:50;22.00;79.40
55777;DHT22;54079;44.540;18.784;2022-09-09T00:52:02;21.70;77.90
55777;DHT22;54079;44.540;18.784;2022-09-09T00:59:48;21.70;83.70
55777;DHT22;54079;44.540;18.784;2022-09-09T01:02:18;21.70;79.10
55777;DHT22;54079;44.540;18.784;2022-09-09T01:04:47;21.80;77.40
55777;DHT22;54079;44.540;18.784;2022-09-09T01:07:17;22.00;77.90
55777;DHT22;54079;44.540;18.784;2022-09-09T01:09:50;22.20;77.90
55777;DHT22;54079;44.540;18.784;2022-09-09T01:12:23;22.30;78.30
55777;DHT22;54079;44.540;18.784;2022-09-09T01:15:04;22.30;75.60
55777;DHT22;54079;44.540;18.784;2022-09-09T01:17:35;22.30;75.20
55777;DHT22;54079;44.540;18.784;2022-09-09T01:22:40;22.30;75.80
55777;DHT22;54079;44.540;18.784;2022-09-09T01:27:56;21.90;88.20
55777;DHT22;54079;44.540;18.784;2022-09-09T01:30:23;21.90;89.10
55777;DHT22;54079;44.540;18.784;2022-09-09T01:32:50;22.00;90.00
55777;DHT22;54079;44.540;18.784;2022-09-09T01:35:32;21.90;91.60
55777;DHT22;54079;44.540;18.784;2022-09-09T01:38:02;21.70;91.40
55777;DHT22;54079;44.540;18.784;2022-09-09T01:40:28;21.70;93.40
55777;DHT22;54079;44.540;18.784;2022-09-09T01:42:53;21.80;93.80
55777;DHT22;54079;44.540;18.784;2022-09-09T01:45:20;21.70;93.30
55777;DHT22;54079;44.540;18.784;2022-09-09T01:47:46;21.60;94.90
55777;DHT22;54079;44.540;18.784;2022-09-09T01:50:12;21.70;94.30
55777;DHT22;54079;44.540;18.784;2022-09-09T01:52:39;21.60;94.60
55777;DHT22;54079;44.540;18.784;2022-09-09T01:55:06;21.80;91.40
55777;DHT22;54079;44.540;18.784;2022-09-09T01:57:48;21.80;90.50
55777;DHT22;54079;44.540;18.784;2022-09-09T02:00:15;21.60;88.00
55777;DHT22;54079;44.540;18.784;2022-09-09T02:02:48;21.30;92.60
55777;DHT22;54079;44.540;18.784;2022-09-09T02:08:08;21.30;94.70
55777;DHT22;54079;44.540;18.784;2022-09-09T02:13:16;21.00;93.80
55777;DHT22;54079;44.540;18.784;2022-09-09T02:15:53;21.00;96.00
55777;DHT22;54079;44.540;18.784;2022-09-09T02:18:24;21.00;96.80
55777;DHT22;54079;44.540;18.784;2022-09-09T02:20:52;20.90;98.00
55777;DHT22;54079;44.540;18.784;2022-09-09T02:23:18;21.00;98.80
55777;DHT22;54079;44.540;18.784;2022-09-09T02:25:44;21.10;99.50
55777;DHT22;54079;44.540;18.784;2022-09-09T02:28:11;21.20;99.90
55777;DHT22;54079;44.540;18.784;2022-09-09T02:30:39;21.30;99.00
55777;DHT22;54079;44.540;18.784;2022-09-09T02:33:07;21.40;98.80
55777;DHT22;54079;44.540;18.784;2022-09-09T02:35:33;21.20;99.10
55777;DHT22;54079;44.540;18.784;2022-09-09T02:38:04;21.20;99.40
55777;DHT22;54079;44.540;18.784;2022-09-09T02:40:30;21.10;99.90
55777;DHT22;54079;44.540;18.784;2022-09-09T02:42:56;21.00;99.90
55777;DHT22;54079;44.540;18.784;2022-09-09T02:45:27;20.90;99.90
55777;DHT22;54079;44.540;18.784;2022-09-09T02:50:39;21.00;99.90
55777;DHT22;54079;44.540;18.784;2022-09-09T02:55:39;21.00;99.90
55777;DHT22;54079;44.540;18.784;2022-09-09T02:58:08;21.00;99.90
55777;DHT22;54079;44.540;18.784;2022-09-09T03:00:35;21.00;99.90
55777;DHT22;54079;44.540;18.784;2022-09-09T03:03:02;20.80;99.90
55777;DHT22;54079;44.540;18.784;2022-09-09T03:05:28;20.90;99.90
55777;DHT22;54079;44.540;18.784;2022-09-09T03:07:54;20.80;99.90
55777;DHT22;54079;44.540;18.784;2022-09-09T03:10:20;20.60;99.90
55777;DHT22;54079;44.540;18.784;2022-09-09T03:12:46;20.40;99.90
55777;DHT22;54079;44.540;18.784;2022-09-09T03:15:11;20.40;99.90
55777;DHT22;54079;44.540;18.784;2022-09-09T03:17:37;20.50;99.90
55777;DHT22;54079;44.540;18.784;2022-09-09T03:20:03;20.70;99.90
55777;DHT22;54079;44.540;18.784;2022-09-09T03:22:29;20.80;99.90
55777;DHT22;54079;44.540;18.784;2022-09-09T03:24:55;20.60;99.90
55777;DHT22;54079;44.540;18.784;2022-09-09T03:27:20;20.60;99.90
55777;DHT22;54079;44.540;18.784;2022-09-09T03:29:46;20.70;99.90
55777;DHT22;54079;44.540;18.784;2022-09-09T03:32:12;20.80;99.90
55777;DHT22;54079;44.540;18.784;2022-09-09T03:34:38;20.80;99.90
55777;DHT22;54079;44.540;18.784;2022-09-09T03:37:06;20.80;99.90
55777;DHT22;54079;44.540;18.784;2022-09-09T03:39:32;20.90;99.90
55777;DHT22;54079;44.540;18.784;2022-09-09T03:41:57;20.80;99.90
55777;DHT22;54079;44.540;18.784;2022-09-09T03:44:23;20.70;99.90
55777;DHT22;54079;44.540;18.784;2022-09-09T03:46:49;20.70;99.90
55777;DHT22;54079;44.540;18.784;2022-09-09T03:49:14;20.60;99.90
55777;DHT22;54079;44.540;18.784;2022-09-09T03:51:40;20.60;99.90
55777;DHT22;54079;44.540;18.784;2022-09-09T03:54:06;20.60;99.90
55777;DHT22;54079;44.540;18.784;2022-09-09T03:56:34;20.40;99.90
55777;DHT22;54079;44.540;18.784;2022-09-09T03:59:00;20.50;99.90
55777;DHT22;54079;44.540;18.784;2022-09-09T04:01:25;20.60;99.90
55777;DHT22;54079;44.540;18.784;2022-09-09T04:03:51;20.50;99.90
55777;DHT22;54079;44.540;18.784;2022-09-09T04:06:18;20.50;99.90
55777;DHT22;54079;44.540;18.784;2022-09-09T04:08:45;20.50;99.90
55777;DHT22;54079;44.540;18.784;2022-09-09T04:11:14;20.70;99.90
55777;DHT22;54079;44.540;18.784;2022-09-09T04:13:40;20.80;99.90
55777;DHT22;54079;44.540;18.784;2022-09-09T04:16:07;20.80;99.90
55777;DHT22;54079;44.540;18.784;2022-09-09T04:18:34;20.90;99.90
55777;DHT22;54079;44.540;18.784;2022-09-09T04:20:59;20.90;99.90
55777;DHT22;54079;44.540;18.784;2022-09-09T04:23:27;20.80;99.90
55777;DHT22;54079;44.540;18.784;2022-09-09T04:25:55;20.80;99.90
55777;DHT22;54079;44.540;18.784;2022-09-09T04:28:22;20.70;99.90
55777;DHT22;54079;44.540;18.784;2022-09-09T04:30:48;20.80;99.90
55777;DHT22;54079;44.540;18.784;2022-09-09T04:33:14;20.80;99.90
55777;DHT22;54079;44.540;18.784;2022-09-09T04:35:44;21.00;99.90
55777;DHT22;54079;44.540;18.784;2022-09-09T04:38:10;20.90;99.90
55777;DHT22;54079;44.540;18.784;2022-09-09T04:40:35;20.90;99.90
55777;DHT22;54079;44.540;18.784;2022-09-09T04:43:02;20.90;99.90
55777;DHT22;54079;44.540;18.784;2022-09-09T04:45:30;20.80;99.90
55777;DHT22;54079;44.540;18.784;2022-09-09T04:47:56;20.80;99.90
55777;DHT22;54079;44.540;18.784;2022-09-09T04:50:22;20.60;99.90
55777;DHT22;54079;44.540;18.784;2022-09-09T04:52:48;20.60;99.90
55777;DHT22;54079;44.540;18.784;2022-09-09T04:55:13;20.70;99.90
55777;DHT22;54079;44.540;18.784;2022-09-09T04:57:39;20.70;99.90
55777;DHT22;54079;44.540;18.784;2022-09-09T05:00:05;20.60;99.90
55777;DHT22;54079;44.540;18.784;2022-09-09T05:02:32;20.40;99.90
55777;DHT22;54079;44.540;18.784;2022-09-09T05:04:58;20.30;99.90
55777;DHT22;54079;44.540;18.784;2022-09-09T05:07:23;20.20;99.90
55777;DHT22;54079;44.540;18.784;2022-09-09T05:09:49;20.20;99.90
55777;DHT22;54079;44.540;18.784;2022-09-09T05:12:15;20.30;99.90
55777;DHT22;54079;44.540;18.784;2022-09-09T05:14:42;20.30;99.90
55777;DHT22;54079;44.540;18.784;2022-09-09T05:17:08;20.50;99.90
55777;DHT22;54079;44.540;18.784;2022-09-09T05:19:33;20.70;99.90
55777;DHT22;54079;44.540;18.784;2022-09-09T05:21:59;20.80;99.90
55777;DHT22;54079;44.540;18.784;2022-09-09T05:24:26;20.80;99.90
55777;DHT22;54079;44.540;18.784;2022-09-09T05:26:52;20.80;99.90
55777;DHT22;54079;44.540;18.784;2022-09-09T05:29:18;20.90;99.90
55777;DHT22;54079;44.540;18.784;2022-09-09T05:31:47;21.10;99.90
55777;DHT22;54079;44.540;18.784;2022-09-09T05:34:13;21.30;99.90
55777;DHT22;54079;44.540;18.784;2022-09-09T05:36:38;21.50;99.90
55777;DHT22;54079;44.540;18.784;2022-09-09T05:39:04;21.80;99.90
55777;DHT22;54079;44.540;18.784;2022-09-09T05:41:30;22.10;99.90
55777;DHT22;54079;44.540;18.784;2022-09-09T05:43:57;22.40;99.50
55777;DHT22;54079;44.540;18.784;2022-09-09T05:46:24;22.80;97.20
55777;DHT22;54079;44.540;18.784;2022-09-09T05:48:53;23.10;96.80
55777;DHT22;54079;44.540;18.784;2022-09-09T05:51:20;23.40;95.70
55777;DHT22;54079;44.540;18.784;2022-09-09T05:53:47;23.80;93.20
55777;DHT22;54079;44.540;18.784;2022-09-09T05:58:42;24.40;90.30
55777;DHT22;54079;44.540;18.784;2022-09-09T06:01:10;24.80;88.20
55777;DHT22;54079;44.540;18.784;2022-09-09T06:03:36;24.90;86.90
55777;DHT22;54079;44.540;18.784;2022-09-09T06:06:06;24.80;83.50
55777;DHT22;54079;44.540;18.784;2022-09-09T06:08:33;25.30;84.00
55777;DHT22;54079;44.540;18.784;2022-09-09T06:11:18;25.70;81.00
55777;DHT22;54079;44.540;18.784;2022-09-09T06:13:44;26.40;78.90
55777;DHT22;54079;44.540;18.784;2022-09-09T06:16:10;27.30;75.80
55777;DHT22;54079;44.540;18.784;2022-09-09T06:18:37;28.10;75.30
55777;DHT22;54079;44.540;18.784;2022-09-09T06:21:04;28.50;72.50
55777;DHT22;54079;44.540;18.784;2022-09-09T06:23:30;29.30;69.90
55777;DHT22;54079;44.540;18.784;2022-09-09T06:26:03;28.80;69.20
55777;DHT22;54079;44.540;18.784;2022-09-09T06:28:33;28.70;69.90
55777;DHT22;54079;44.540;18.784;2022-09-09T06:31:03;30.10;67.50
55777;DHT22;54079;44.540;18.784;2022-09-09T06:33:33;29.50;66.80
55777;DHT22;54079;44.540;18.784;2022-09-09T06:36:00;29.40;67.50
55777;DHT22;54079;44.540;18.784;2022-09-09T06:38:25;28.70;67.90
55777;DHT22;54079;44.540;18.784;2022-09-09T06:40:55;28.10;69.80
55777;DHT22;54079;44.540;18.784;2022-09-09T06:43:21;28.40;69.90
55777;DHT22;54079;44.540;18.784;2022-09-09T06:45:57;28.80;69.00
55777;DHT22;54079;44.540;18.784;2022-09-09T06:48:23;29.00;68.70
55777;DHT22;54079;44.540;18.784;2022-09-09T06:50:59;29.10;68.60
55777;DHT22;54079;44.540;18.784;2022-09-09T06:53:25;29.20;69.10
55777;DHT22;54079;44.540;18.784;2022-09-09T06:55:52;29.60;68.70
55777;DHT22;54079;44.540;18.784;2022-09-09T06:58:18;29.90;66.70
55777;DHT22;54079;44.540;18.784;2022-09-09T07:00:44;29.60;67.00
55777;DHT22;54079;44.540;18.784;2022-09-09T07:03:10;29.30;67.40
55777;DHT22;54079;44.540;18.784;2022-09-09T07:05:36;30.50;66.10
55777;DHT22;54079;44.540;18.784;2022-09-09T07:08:02;31.80;65.10
55777;DHT22;54079;44.540;18.784;2022-09-09T07:10:27;34.30;59.80
55777;DHT22;54079;44.540;18.784;2022-09-09T07:12:53;36.00;56.30
55777;DHT22;54079;44.540;18.784;2022-09-09T07:15:20;37.70;52.90
55777;DHT22;54079;44.540;18.784;2022-09-09T07:17:46;38.70;49.90
55777;DHT22;54079;44.540;18.784;2022-09-09T07:20:13;39.70;47.10
55777;DHT22;54079;44.540;18.784;2022-09-09T07:22:40;40.70;46.10
55777;DHT22;54079;44.540;18.784;2022-09-09T07:25:06;41.70;44.60
55777;DHT22;54079;44.540;18.784;2022-09-09T07:27:32;42.60;44.10
55777;DHT22;54079;44.540;18.784;2022-09-09T07:29:58;42.20;43.20
55777;DHT22;54079;44.540;18.784;2022-09-09T07:32:24;41.70;43.80
55777;DHT22;54079;44.540;18.784;2022-09-09T07:34:51;41.70;42.00
55777;DHT22;54079;44.540;18.784;2022-09-09T07:37:17;40.00;44.80
55777;DHT22;54079;44.540;18.784;2022-09-09T07:39:43;39.20;47.00
55777;DHT22;54079;44.540;18.784;2022-09-09T07:42:09;39.60;46.10
55777;DHT22;54079;44.540;18.784;2022-09-09T07:44:36;40.70;46.00
55777;DHT22;54079;44.540;18.784;2022-09-09T07:47:04;41.20;44.40
55777;DHT22;54079;44.540;18.784;2022-09-09T07:49:30;40.30;44.90
55777;DHT22;54079;44.540;18.784;2022-09-09T07:51:57;41.40;44.10
55777;DHT22;54079;44.540;18.784;2022-09-09T07:54:23;42.30;43.20
55777;DHT22;54079;44.540;18.784;2022-09-09T07:56:49;42.20;44.00
55777;DHT22;54079;44.540;18.784;2022-09-09T07:59:15;41.30;44.20
55777;DHT22;54079;44.540;18.784;2022-09-09T08:01:45;40.40;44.80
55777;DHT22;54079;44.540;18.784;2022-09-09T08:04:18;39.80;46.40
55777;DHT22;54079;44.540;18.784;2022-09-09T08:06:48;39.00;47.60
55777;DHT22;54079;44.540;18.784;2022-09-09T08:09:15;38.40;47.80
55777;DHT22;54079;44.540;18.784;2022-09-09T08:11:41;38.00;48.00
55777;DHT22;54079;44.540;18.784;2022-09-09T08:14:07;38.20;47.30
55777;DHT22;54079;44.540;18.784;2022-09-09T08:16:51;38.90;47.70
55777;DHT22;54079;44.540;18.784;2022-09-09T08:19:19;39.10;46.70
55777;DHT22;54079;44.540;18.784;2022-09-09T08:21:44;39.70;46.20
55777;DHT22;54079;44.540;18.784;2022-09-09T08:24:10;39.60;45.90
55777;DHT22;54079;44.540;18.784;2022-09-09T08:26:37;39.10;47.00
55777;DHT22;54079;44.540;18.784;2022-09-09T08:29:04;38.80;47.30
55777;DHT22;54079;44.540;18.784;2022-09-09T08:31:31;38.20;47.30
55777;DHT22;54079;44.540;18.784;2022-09-09T08:33:58;37.30;47.50
55777;DHT22;54079;44.540;18.784;2022-09-09T08:36:29;37.20;48.50
55777;DHT22;54079;44.540;18.784;2022-09-09T08:38:56;38.10;47.90
55777;DHT22;54079;44.540;18.784;2022-09-09T08:44:07;38.00;47.80
55777;DHT22;54079;44.540;18.784;2022-09-09T08:46:42;39.10;46.80
55777;DHT22;54079;44.540;18.784;2022-09-09T08:49:24;40.50;43.70
55777;DHT22;54079;44.540;18.784;2022-09-09T08:51:54;40.20;44.20
55777;DHT22;54079;44.540;18.784;2022-09-09T08:54:22;40.20;45.30
55777;DHT22;54079;44.540;18.784;2022-09-09T08:56:48;41.50;44.10
55777;DHT22;54079;44.540;18.784;2022-09-09T08:59:16;42.00;42.70
55777;DHT22;54079;44.540;18.784;2022-09-09T09:12:39;39.80;43.70
55777;DHT22;54079;44.540;18.784;2022-09-09T09:15:11;37.80;47.80
55777;DHT22;54079;44.540;18.784;2022-09-09T09:17:40;37.00;48.00
55777;DHT22;54079;44.540;18.784;2022-09-09T09:20:10;36.20;47.50
55777;DHT22;54079;44.540;18.784;2022-09-09T09:22:41;35.20;49.80
55777;DHT22;54079;44.540;18.784;2022-09-09T09:25:23;33.50;50.50
55777;DHT22;54079;44.540;18.784;2022-09-09T09:27:52;32.50;52.20
55777;DHT22;54079;44.540;18.784;2022-09-09T09:30:21;32.40;53.70
55777;DHT22;54079;44.540;18.784;2022-09-09T09:33:01;32.40;52.40
55777;DHT22;54079;44.540;18.784;2022-09-09T09:35:27;32.20;52.90
55777;DHT22;54079;44.540;18.784;2022-09-09T09:37:53;32.30;54.90
55777;DHT22;54079;44.540;18.784;2022-09-09T09:40:20;32.00;55.40
55777;DHT22;54079;44.540;18.784;2022-09-09T09:48:00;32.60;55.00
55777;DHT22;54079;44.540;18.784;2022-09-09T09:50:27;32.70;54.90
55777;DHT22;54079;44.540;18.784;2022-09-09T09:52:56;32.80;54.30
55777;DHT22;54079;44.540;18.784;2022-09-09T09:55:23;32.80;53.40
55777;DHT22;54079;44.540;18.784;2022-09-09T09:57:49;32.90;52.30
55777;DHT22;54079;44.540;18.784;2022-09-09T10:00:22;33.20;52.50
55777;DHT22;54079;44.540;18.784;2022-09-09T10:02:48;33.30;51.80
55777;DHT22;54079;44.540;18.784;2022-09-09T10:05:18;33.30;53.90
55777;DHT22;54079;44.540;18.784;2022-09-09T10:07:45;32.50;54.40
55777;DHT22;54079;44.540;18.784;2022-09-09T10:10:23;32.30;53.40
55777;DHT22;54079;44.540;18.784;2022-09-09T10:22:52;32.40;53.50
55777;DHT22;54079;44.540;18.784;2022-09-09T10:28:08;32.50;52.90
55777;DHT22;54079;44.540;18.784;2022-09-09T10:33:29;31.90;53.00
55777;DHT22;54079;44.540;18.784;2022-09-09T10:43:22;32.10;56.00
55777;DHT22;54079;44.540;18.784;2022-09-09T10:53:37;33.70;52.00
55777;DHT22;54079;44.540;18.784;2022-09-09T10:56:09;34.00;51.20
55777;DHT22;54079;44.540;18.784;2022-09-09T10:58:38;34.20;51.30
55777;DHT22;54079;44.540;18.784;2022-09-09T11:01:09;33.90;48.60
55777;DHT22;54079;44.540;18.784;2022-09-09T11:03:35;33.70;49.80
55777;DHT22;54079;44.540;18.784;2022-09-09T11:06:06;33.30;51.60
55777;DHT22;54079;44.540;18.784;2022-09-09T11:08:36;33.00;51.60
55777;DHT22;54079;44.540;18.784;2022-09-09T11:16:20;32.50;52.90
55777;DHT22;54079;44.540;18.784;2022-09-09T11:18:47;32.50;52.30
55777;DHT22;54079;44.540;18.784;2022-09-09T11:21:19;32.50;53.60
55777;DHT22;54079;44.540;18.784;2022-09-09T11:23:58;32.50;52.80
55777;DHT22;54079;44.540;18.784;2022-09-09T11:26:29;32.60;53.10
55777;DHT22;54079;44.540;18.784;2022-09-09T11:29:04;32.60;53.70
55777;DHT22;54079;44.540;18.784;2022-09-09T11:31:36;32.70;52.50
55777;DHT22;54079;44.540;18.784;2022-09-09T11:36:50;32.90;54.10
55777;DHT22;54079;44.540;18.784;2022-09-09T11:41:44;33.30;53.30
55777;DHT22;54079;44.540;18.784;2022-09-09T11:44:11;33.30;52.00
55777;DHT22;54079;44.540;18.784;2022-09-09T11:46:38;33.70;51.10
55777;DHT22;54079;44.540;18.784;2022-09-09T11:49:05;34.00;50.60
55777;DHT22;54079;44.540;18.784;2022-09-09T11:51:32;34.10;51.30
55777;DHT22;54079;44.540;18.784;2022-09-09T11:53:58;34.20;49.60
55777;DHT22;54079;44.540;18.784;2022-09-09T11:59:00;34.50;49.30
55777;DHT22;54079;44.540;18.784;2022-09-09T12:01:43;34.50;51.50
55777;DHT22;54079;44.540;18.784;2022-09-09T12:07:01;34.30;52.00
55777;DHT22;54079;44.540;18.784;2022-09-09T12:09:42;34.00;51.00
55777;DHT22;54079;44.540;18.784;2022-09-09T12:17:22;34.10;51.40
55777;DHT22;54079;44.540;18.784;2022-09-09T12:19:48;34.10;50.50
55777;DHT22;54079;44.540;18.784;2022-09-09T12:22:38;33.90;50.30
55777;DHT22;54079;44.540;18.784;2022-09-09T12:25:23;33.60;49.80
55777;DHT22;54079;44.540;18.784;2022-09-09T12:30:22;32.60;51.10
55777;DHT22;54079;44.540;18.784;2022-09-09T12:33:01;32.30;52.10
55777;DHT22;54079;44.540;18.784;2022-09-09T12:35:27;32.20;52.00
55777;DHT22;54079;44.540;18.784;2022-09-09T12:37:55;31.90;54.40
55777;DHT22;54079;44.540;18.784;2022-09-09T12:40:24;31.90;53.30
55777;DHT22;54079;44.540;18.784;2022-09-09T12:42:50;31.90;54.50
55777;DHT22;54079;44.540;18.784;2022-09-09T12:45:20;31.90;53.60
55777;DHT22;54079;44.540;18.784;2022-09-09T12:50:25;31.80;52.70
55777;DHT22;54079;44.540;18.784;2022-09-09T12:52:52;31.80;53.70
55777;DHT22;54079;44.540;18.784;2022-09-09T12:55:20;31.90;54.50
55777;DHT22;54079;44.540;18.784;2022-09-09T12:57:47;31.90;53.60
55777;DHT22;54079;44.540;18.784;2022-09-09T13:00:19;31.80;52.60
55777;DHT22;54079;44.540;18.784;2022-09-09T13:02:47;31.80;52.30
55777;DHT22;54079;44.540;18.784;2022-09-09T13:05:14;31.40;52.90
55777;DHT22;54079;44.540;18.784;2022-09-09T13:07:40;31.20;53.80
55777;DHT22;54079;44.540;18.784;2022-09-09T13:10:07;31.20;55.40
55777;DHT22;54079;44.540;18.784;2022-09-09T13:12:35;31.10;54.60
55777;DHT22;54079;44.540;18.784;2022-09-09T13:15:01;31.00;54.40
55777;DHT22;54079;44.540;18.784;2022-09-09T13:17:28;31.10;53.90
55777;DHT22;54079;44.540;18.784;2022-09-09T13:19:56;30.80;54.00
55777;DHT22;54079;44.540;18.784;2022-09-09T13:22:35;30.50;54.50
55777;DHT22;54079;44.540;18.784;2022-09-09T13:27:40;30.20;55.10
55777;DHT22;54079;44.540;18.784;2022-09-09T13:35:29;29.80;54.90
55777;DHT22;54079;44.540;18.784;2022-09-09T13:37:55;29.70;56.10
55777;DHT22;54079;44.540;18.784;2022-09-09T13:40:22;29.90;55.60
55777;DHT22;54079;44.540;18.784;2022-09-09T13:42:51;30.10;57.50
55777;DHT22;54079;44.540;18.784;2022-09-09T13:45:18;30.30;56.40
55777;DHT22;54079;44.540;18.784;2022-09-09T13:47:47;30.30;56.80
55777;DHT22;54079;44.540;18.784;2022-09-09T13:50:18;30.10;56.20
55777;DHT22;54079;44.540;18.784;2022-09-09T13:52:45;30.00;56.10
55777;DHT22;54079;44.540;18.784;2022-09-09T13:55:11;30.10;57.60
55777;DHT22;54079;44.540;18.784;2022-09-09T13:57:37;30.20;57.90
55777;DHT22;54079;44.540;18.784;2022-09-09T14:00:03;30.40;56.00
55777;DHT22;54079;44.540;18.784;2022-09-09T14:02:29;30.50;55.30
55777;DHT22;54079;44.540;18.784;2022-09-09T14:04:56;30.50;55.80
55777;DHT22;54079;44.540;18.784;2022-09-09T14:07:22;30.50;55.60
55777;DHT22;54079;44.540;18.784;2022-09-09T14:09:47;30.40;55.40
55777;DHT22;54079;44.540;18.784;2022-09-09T14:12:16;30.30;56.70
55777;DHT22;54079;44.540;18.784;2022-09-09T14:14:42;30.40;56.60
55777;DHT22;54079;44.540;18.784;2022-09-09T14:17:08;30.40;56.40
55777;DHT22;54079;44.540;18.784;2022-09-09T14:19:34;30.50;56.20
55777;DHT22;54079;44.540;18.784;2022-09-09T14:22:00;30.40;57.80
55777;DHT22;54079;44.540;18.784;2022-09-09T14:24:26;30.30;57.60
55777;DHT22;54079;44.540;18.784;2022-09-09T14:26:53;30.20;57.90
55777;DHT22;54079;44.540;18.784;2022-09-09T14:29:19;30.20;57.00
55777;DHT22;54079;44.540;18.784;2022-09-09T14:31:44;30.30;57.30
55777;DHT22;54079;44.540;18.784;2022-09-09T14:34:10;30.30;59.10
55777;DHT22;54079;44.540;18.784;2022-09-09T14:36:36;29.90;58.80
55777;DHT22;54079;44.540;18.784;2022-09-09T14:39:02;29.80;61.00
55777;DHT22;54079;44.540;18.784;2022-09-09T14:41:29;29.50;59.80
55777;DHT22;54079;44.540;18.784;2022-09-09T14:43:55;29.40;59.80
55777;DHT22;54079;44.540;18.784;2022-09-09T14:46:21;29.30;59.80
55777;DHT22;54079;44.540;18.784;2022-09-09T14:48:47;29.10;60.60
55777;DHT22;54079;44.540;18.784;2022-09-09T14:51:15;28.90;60.80
55777;DHT22;54079;44.540;18.784;2022-09-09T14:53:41;28.70;61.50
55777;DHT22;54079;44.540;18.784;2022-09-09T14:56:08;28.60;62.50
55777;DHT22;54079;44.540;18.784;2022-09-09T14:58:35;28.40;61.70
55777;DHT22;54079;44.540;18.784;2022-09-09T15:01:05;28.30;64.20
55777;DHT22;54079;44.540;18.784;2022-09-09T15:03:30;28.20;64.10
55777;DHT22;54079;44.540;18.784;2022-09-09T15:05:56;28.20;65.00
55777;DHT22;54079;44.540;18.784;2022-09-09T15:08:24;28.20;64.70
55777;DHT22;54079;44.540;18.784;2022-09-09T15:10:49;28.30;63.60
55777;DHT22;54079;44.540;18.784;2022-09-09T15:13:16;28.30;65.10
55777;DHT22;54079;44.540;18.784;2022-09-09T15:15:44;28.10;63.00
55777;DHT22;54079;44.540;18.784;2022-09-09T15:18:10;28.10;63.90
55777;DHT22;54079;44.540;18.784;2022-09-09T15:20:36;28.00;63.60
55777;DHT22;54079;44.540;18.784;2022-09-09T15:23:02;27.90;64.80
55777;DHT22;54079;44.540;18.784;2022-09-09T15:25:28;27.90;65.60
55777;DHT22;54079;44.540;18.784;2022-09-09T15:27:54;27.90;66.00
55777;DHT22;54079;44.540;18.784;2022-09-09T15:30:21;27.80;64.90
55777;DHT22;54079;44.540;18.784;2022-09-09T15:32:47;27.80;67.70
55777;DHT22;54079;44.540;18.784;2022-09-09T15:35:12;27.90;65.70
55777;DHT22;54079;44.540;18.784;2022-09-09T15:37:38;28.00;68.60
55777;DHT22;54079;44.540;18.784;2022-09-09T15:40:04;28.10;67.00
55777;DHT22;54079;44.540;18.784;2022-09-09T15:42:30;28.00;63.00
55777;DHT22;54079;44.540;18.784;2022-09-09T15:44:55;28.00;63.30
55777;DHT22;54079;44.540;18.784;2022-09-09T15:47:22;28.00;67.60
55777;DHT22;54079;44.540;18.784;2022-09-09T15:49:48;27.80;71.30
55777;DHT22;54079;44.540;18.784;2022-09-09T15:52:13;27.80;70.10
55777;DHT22;54079;44.540;18.784;2022-09-09T15:54:39;27.60;70.00
55777;DHT22;54079;44.540;18.784;2022-09-09T15:57:06;27.40;71.70
55777;DHT22;54079;44.540;18.784;2022-09-09T15:59:33;26.90;73.00
55777;DHT22;54079;44.540;18.784;2022-09-09T16:01:59;26.50;72.70
55777;DHT22;54079;44.540;18.784;2022-09-09T16:04:25;26.20;74.30
55777;DHT22;54079;44.540;18.784;2022-09-09T16:06:52;25.90;76.10
55777;DHT22;54079;44.540;18.784;2022-09-09T16:09:18;25.80;75.00
55777;DHT22;54079;44.540;18.784;2022-09-09T16:11:44;25.80;77.10
55777;DHT22;54079;44.540;18.784;2022-09-09T16:14:12;25.70;78.80
55777;DHT22;54079;44.540;18.784;2022-09-09T16:16:38;25.70;76.80
55777;DHT22;54079;44.540;18.784;2022-09-09T16:19:07;25.70;78.60
55777;DHT22;54079;44.540;18.784;2022-09-09T16:21:40;25.70;78.30
55777;DHT22;54079;44.540;18.784;2022-09-09T16:24:07;25.80;80.90
55777;DHT22;54079;44.540;18.784;2022-09-09T16:26:34;25.90;83.90
55777;DHT22;54079;44.540;18.784;2022-09-09T16:29:00;25.90;85.20
55777;DHT22;54079;44.540;18.784;2022-09-09T16:31:27;25.80;85.80
55777;DHT22;54079;44.540;18.784;2022-09-09T16:33:53;25.70;86.70
55777;DHT22;54079;44.540;18.784;2022-09-09T16:36:24;25.70;86.90
55777;DHT22;54079;44.540;18.784;2022-09-09T16:38:54;25.60;86.40
55777;DHT22;54079;44.540;18.784;2022-09-09T16:41:20;25.50;90.50
55777;DHT22;54079;44.540;18.784;2022-09-09T16:43:46;25.50;90.50
55777;DHT22;54079;44.540;18.784;2022-09-09T16:46:13;25.50;90.10
55777;DHT22;54079;44.540;18.784;2022-09-09T16:48:40;25.40;88.60
55777;DHT22;54079;44.540;18.784;2022-09-09T16:51:07;25.30;88.30
55777;DHT22;54079;44.540;18.784;2022-09-09T16:53:34;25.30;91.60
55777;DHT22;54079;44.540;18.784;2022-09-09T16:56:06;25.10;90.60
55777;DHT22;54079;44.540;18.784;2022-09-09T16:58:32;25.10;91.60
55777;DHT22;54079;44.540;18.784;2022-09-09T17:00:59;25.10;93.30
55777;DHT22;54079;44.540;18.784;2022-09-09T17:03:25;25.10;95.00
55777;DHT22;54079;44.540;18.784;2022-09-09T17:05:51;25.20;95.90
55777;DHT22;54079;44.540;18.784;2022-09-09T17:08:17;25.10;95.00
55777;DHT22;54079;44.540;18.784;2022-09-09T17:10:43;24.90;93.70
55777;DHT22;54079;44.540;18.784;2022-09-09T17:13:09;24.70;93.20
55777;DHT22;54079;44.540;18.784;2022-09-09T17:15:41;24.70;87.10
55777;DHT22;54079;44.540;18.784;2022-09-09T17:18:10;24.50;90.40
55777;DHT22;54079;44.540;18.784;2022-09-09T17:20:37;24.40;90.70
55777;DHT22;54079;44.540;18.784;2022-09-09T17:23:02;24.20;90.30
55777;DHT22;54079;44.540;18.784;2022-09-09T17:25:28;23.80;90.60
55777;DHT22;54079;44.540;18.784;2022-09-09T17:27:54;23.50;92.90